createdAt,value
2022-10-31T00:00:19.590Z,90
2022-10-31T00:00:39.654Z,90
2022-10-31T00:00:59.685Z,90
2022-10-31T00:01:19.717Z,90
2022-10-31T00:01:39.812Z,90
2022-10-31T00:01:59.901Z,67.5
2022-10-31T00:02:19.959Z,67.5
2022-10-31T00:02:40.059Z,67.5
2022-10-31T00:03:00.406Z,67.5
2022-10-31T00:03:20.104Z,67.5
2022-10-31T00:03:40.152Z,45
2022-10-31T00:04:00.229Z,45
2022-10-31T00:04:20.284Z,45
2022-10-31T00:04:40.340Z,45
2022-10-31T00:05:00.408Z,45
2022-10-31T00:05:20.453Z,45
2022-10-31T00:05:40.520Z,45
2022-10-31T00:06:00.592Z,45
2022-10-31T00:06:20.642Z,45
2022-10-31T00:06:40.707Z,45
2022-10-31T00:07:00.758Z,45
2022-10-31T00:07:20.809Z,22.5
2022-10-31T00:07:40.871Z,22.5
2022-10-31T00:08:00.932Z,22.5
2022-10-31T00:08:20.994Z,22.5
2022-10-31T00:08:41.053Z,22.5
2022-10-31T00:09:01.129Z,22.5
2022-10-31T00:09:21.177Z,22.5
2022-10-31T00:09:41.235Z,22.5
2022-10-31T00:10:01.288Z,22.5
2022-10-31T00:10:21.349Z,22.5
2022-10-31T00:10:41.425Z,22.5
2022-10-31T00:11:01.469Z,22.5
2022-10-31T00:11:21.520Z,22.5
2022-10-31T00:11:41.590Z,22.5
2022-10-31T00:12:01.647Z,22.5
2022-10-31T00:12:21.698Z,22.5
2022-10-31T00:12:41.765Z,22.5
2022-10-31T00:13:02.042Z,0
2022-10-31T00:13:41.927Z,0
2022-10-31T00:14:02.008Z,22.5
2022-10-31T00:14:22.062Z,22.5
2022-10-31T00:14:42.121Z,22.5
2022-10-31T00:15:02.172Z,22.5
2022-10-31T00:15:22.255Z,0
2022-10-31T00:15:42.303Z,0
2022-10-31T00:16:02.358Z,0
2022-10-31T00:16:22.399Z,0
2022-10-31T00:16:42.470Z,0
2022-10-31T00:17:02.545Z,0
2022-10-31T00:17:22.594Z,0
2022-10-31T00:17:42.649Z,0
2022-10-31T00:18:02.851Z,0
2022-10-31T00:18:22.793Z,0
2022-10-31T00:18:42.851Z,22.5
2022-10-31T00:19:02.903Z,22.5
2022-10-31T00:19:22.973Z,22.5
2022-10-31T00:19:43.030Z,22.5
2022-10-31T00:20:03.125Z,22.5
2022-10-31T00:20:23.149Z,22.5
2022-10-31T00:20:43.208Z,22.5
2022-10-31T00:21:03.261Z,22.5
2022-10-31T00:21:23.357Z,22.5
2022-10-31T00:21:43.405Z,22.5
2022-10-31T00:22:03.478Z,22.5
2022-10-31T00:22:23.533Z,22.5
2022-10-31T00:22:43.579Z,22.5
2022-10-31T00:23:03.639Z,22.5
2022-10-31T00:23:23.707Z,67.5
2022-10-31T00:23:43.764Z,90
2022-10-31T00:24:03.811Z,90
2022-10-31T00:24:23.880Z,90
2022-10-31T00:24:43.938Z,90
2022-10-31T00:25:04.004Z,90
2022-10-31T00:25:24.060Z,90
2022-10-31T00:25:44.120Z,90
2022-10-31T00:26:04.180Z,90
2022-10-31T00:26:24.245Z,90
2022-10-31T00:26:44.307Z,90
2022-10-31T00:27:04.350Z,90
2022-10-31T00:27:24.427Z,90
2022-10-31T00:27:44.512Z,67.5
2022-10-31T00:28:04.619Z,67.5
2022-10-31T00:28:24.606Z,67.5
2022-10-31T00:28:44.685Z,67.5
2022-10-31T00:29:04.745Z,67.5
2022-10-31T00:29:24.797Z,67.5
2022-10-31T00:29:44.866Z,45
2022-10-31T00:30:04.930Z,45
2022-10-31T00:30:24.994Z,45
2022-10-31T00:30:45.049Z,45
2022-10-31T00:31:05.114Z,45
2022-10-31T00:31:25.158Z,45
2022-10-31T00:31:45.234Z,45
2022-10-31T00:32:05.276Z,45
2022-10-31T00:32:25.339Z,45
2022-10-31T00:32:45.390Z,67.5
2022-10-31T00:33:05.462Z,90
2022-10-31T00:33:25.516Z,90
2022-10-31T00:33:45.585Z,90
2022-10-31T00:34:05.642Z,90
2022-10-31T00:34:25.695Z,90
2022-10-31T00:34:45.715Z,90
2022-10-31T00:35:05.797Z,90
2022-10-31T00:35:25.848Z,90
2022-10-31T00:35:45.901Z,90
2022-10-31T00:36:05.991Z,112.5
2022-10-31T00:36:26.064Z,112.5
2022-10-31T00:36:46.131Z,90
2022-10-31T00:37:06.182Z,90
2022-10-31T00:37:26.231Z,90
2022-10-31T00:37:46.276Z,112.5
2022-10-31T00:38:06.347Z,112.5
2022-10-31T00:38:26.393Z,112.5
2022-10-31T00:38:46.464Z,112.5
2022-10-31T00:39:06.522Z,112.5
2022-10-31T00:39:26.585Z,135
2022-10-31T00:39:46.630Z,135
2022-10-31T00:40:06.695Z,135
2022-10-31T00:40:26.743Z,112.5
2022-10-31T00:40:46.801Z,112.5
2022-10-31T00:41:06.867Z,112.5
2022-10-31T00:41:26.926Z,112.5
2022-10-31T00:41:46.987Z,90
2022-10-31T00:42:07.052Z,90
2022-10-31T00:42:27.115Z,90
2022-10-31T00:42:47.166Z,90
2022-10-31T00:43:07.295Z,90
2022-10-31T00:43:27.279Z,90
2022-10-31T00:43:47.340Z,67.5
2022-10-31T00:44:07.393Z,67.5
2022-10-31T00:44:27.462Z,67.5
2022-10-31T00:44:47.487Z,67.5
2022-10-31T00:45:07.558Z,90
2022-10-31T00:45:27.640Z,90
2022-10-31T00:45:47.705Z,112.5
2022-10-31T00:46:07.772Z,112.5
2022-10-31T00:46:27.828Z,112.5
2022-10-31T00:46:47.900Z,135
2022-10-31T00:47:07.931Z,135
2022-10-31T00:47:28.001Z,135
2022-10-31T00:47:48.078Z,135
2022-10-31T00:48:08.157Z,135
2022-10-31T00:48:28.200Z,135
2022-10-31T00:48:48.268Z,135
2022-10-31T00:49:08.328Z,135
2022-10-31T00:49:28.380Z,112.5
2022-10-31T00:49:48.446Z,112.5
2022-10-31T00:50:08.506Z,112.5
2022-10-31T00:50:28.570Z,112.5
2022-10-31T00:50:48.629Z,112.5
2022-10-31T00:51:08.683Z,112.5
2022-10-31T00:51:28.723Z,112.5
2022-10-31T00:51:48.811Z,112.5
2022-10-31T00:52:08.864Z,112.5
2022-10-31T00:52:28.924Z,112.5
2022-10-31T00:52:48.999Z,112.5
2022-10-31T00:53:09.067Z,112.5
2022-10-31T00:53:29.115Z,112.5
2022-10-31T00:53:49.199Z,112.5
2022-10-31T00:54:09.254Z,112.5
2022-10-31T00:54:29.305Z,112.5
2022-10-31T00:54:49.350Z,112.5
2022-10-31T00:55:09.437Z,112.5
2022-10-31T00:55:29.499Z,112.5
2022-10-31T00:55:49.554Z,112.5
2022-10-31T00:56:09.617Z,112.5
2022-10-31T00:56:29.684Z,112.5
2022-10-31T00:56:49.732Z,112.5
2022-10-31T00:57:09.763Z,112.5
2022-10-31T00:57:29.841Z,112.5
2022-10-31T00:57:49.896Z,112.5
2022-10-31T00:58:10.054Z,112.5
2022-10-31T00:58:30.054Z,112.5
2022-10-31T00:58:50.113Z,112.5
2022-10-31T00:59:10.173Z,90
2022-10-31T00:59:30.236Z,67.5
2022-10-31T00:59:50.302Z,22.5
2022-10-31T01:00:10.362Z,22.5
2022-10-31T01:00:30.429Z,22.5
2022-10-31T01:00:51.892Z,22.5
2022-10-31T01:01:10.709Z,22.5
2022-10-31T01:01:30.713Z,22.5
2022-10-31T01:01:50.752Z,22.5
2022-10-31T01:02:10.941Z,22.5
2022-10-31T01:02:30.955Z,45
2022-10-31T01:02:50.853Z,67.5
2022-10-31T01:03:10.919Z,67.5
2022-10-31T01:03:30.977Z,67.5
2022-10-31T01:03:51.046Z,67.5
2022-10-31T01:04:11.102Z,67.5
2022-10-31T01:04:31.169Z,67.5
2022-10-31T01:04:51.259Z,67.5
2022-10-31T01:05:11.283Z,67.5
2022-10-31T01:05:31.352Z,90
2022-10-31T01:05:51.390Z,90
2022-10-31T01:06:11.505Z,90
2022-10-31T01:06:31.551Z,90
2022-10-31T01:06:51.615Z,90
2022-10-31T01:07:11.672Z,90
2022-10-31T01:07:31.740Z,90
2022-10-31T01:07:51.784Z,90
2022-10-31T01:08:11.855Z,90
2022-10-31T01:08:31.914Z,90
2022-10-31T01:08:51.974Z,90
2022-10-31T01:09:12.047Z,90
2022-10-31T01:09:32.101Z,90
2022-10-31T01:09:52.156Z,67.5
2022-10-31T01:10:12.202Z,67.5
2022-10-31T01:10:32.286Z,67.5
2022-10-31T01:10:52.302Z,45
2022-10-31T01:11:12.375Z,22.5
2022-10-31T01:11:32.469Z,22.5
2022-10-31T01:11:52.510Z,22.5
2022-10-31T01:12:12.578Z,22.5
2022-10-31T01:12:32.640Z,22.5
2022-10-31T01:12:52.687Z,22.5
2022-10-31T01:13:12.804Z,22.5
2022-10-31T01:13:32.828Z,22.5
2022-10-31T01:13:52.859Z,22.5
2022-10-31T01:14:12.947Z,22.5
2022-10-31T01:14:32.989Z,22.5
2022-10-31T01:14:53.047Z,22.5
2022-10-31T01:15:13.147Z,22.5
2022-10-31T01:15:33.207Z,22.5
2022-10-31T01:15:53.274Z,22.5
2022-10-31T01:16:13.327Z,22.5
2022-10-31T01:16:33.397Z,22.5
2022-10-31T01:16:53.447Z,22.5
2022-10-31T01:17:13.522Z,22.5
2022-10-31T01:17:33.570Z,22.5
2022-10-31T01:17:53.588Z,22.5
2022-10-31T01:18:13.675Z,22.5
2022-10-31T01:18:33.762Z,22.5
2022-10-31T01:18:53.818Z,22.5
2022-10-31T01:19:13.886Z,22.5
2022-10-31T01:19:33.939Z,22.5
2022-10-31T01:19:54.009Z,22.5
2022-10-31T01:20:14.055Z,22.5
2022-10-31T01:20:34.126Z,22.5
2022-10-31T01:20:54.196Z,22.5
2022-10-31T01:21:14.244Z,22.5
2022-10-31T01:21:34.321Z,45
2022-10-31T01:21:54.368Z,67.5
2022-10-31T01:22:14.417Z,90
2022-10-31T01:22:34.495Z,90
2022-10-31T01:22:54.576Z,90
2022-10-31T01:23:14.603Z,90
2022-10-31T01:23:34.662Z,90
2022-10-31T01:23:54.744Z,90
2022-10-31T01:24:14.778Z,67.5
2022-10-31T01:24:34.823Z,45
2022-10-31T01:24:54.904Z,22.5
2022-10-31T01:25:14.969Z,22.5
2022-10-31T01:25:35.033Z,22.5
2022-10-31T01:25:55.077Z,22.5
2022-10-31T01:26:15.138Z,22.5
2022-10-31T01:26:35.222Z,22.5
2022-10-31T01:26:55.255Z,22.5
2022-10-31T01:27:15.306Z,22.5
2022-10-31T01:27:35.388Z,45
2022-10-31T01:27:55.442Z,67.5
2022-10-31T01:28:15.567Z,112.5
2022-10-31T01:28:35.564Z,112.5
2022-10-31T01:28:55.635Z,135
2022-10-31T01:29:15.687Z,135
2022-10-31T01:29:35.743Z,135
2022-10-31T01:29:55.807Z,112.5
2022-10-31T01:30:15.857Z,112.5
2022-10-31T01:30:35.906Z,135
2022-10-31T01:30:55.967Z,135
2022-10-31T01:31:16.050Z,157.5
2022-10-31T01:31:36.099Z,135
2022-10-31T01:31:56.162Z,135
2022-10-31T01:32:16.196Z,135
2022-10-31T01:32:36.322Z,135
2022-10-31T01:32:56.553Z,135
2022-10-31T01:33:16.400Z,135
2022-10-31T01:33:36.448Z,135
2022-10-31T01:33:56.511Z,135
2022-10-31T01:34:16.609Z,135
2022-10-31T01:34:36.649Z,157.5
2022-10-31T01:34:56.726Z,180
2022-10-31T01:35:16.815Z,225
2022-10-31T01:35:36.826Z,225
2022-10-31T01:35:56.893Z,225
2022-10-31T01:36:16.953Z,225
2022-10-31T01:36:37.008Z,225
2022-10-31T01:36:57.069Z,225
2022-10-31T01:37:17.114Z,202.5
2022-10-31T01:37:37.181Z,180
2022-10-31T01:37:57.254Z,202.5
2022-10-31T01:38:17.320Z,202.5
2022-10-31T01:38:37.375Z,202.5
2022-10-31T01:38:57.437Z,180
2022-10-31T01:39:17.498Z,180
2022-10-31T01:39:37.559Z,180
2022-10-31T01:39:57.624Z,135
2022-10-31T01:40:17.673Z,90
2022-10-31T01:40:37.740Z,90
2022-10-31T01:40:57.799Z,90
2022-10-31T01:41:17.850Z,90
2022-10-31T01:41:37.935Z,112.5
2022-10-31T01:41:57.965Z,135
2022-10-31T01:42:18.031Z,135
2022-10-31T01:42:38.082Z,135
2022-10-31T01:42:58.565Z,135
2022-10-31T01:43:18.279Z,112.5
2022-10-31T01:43:38.273Z,112.5
2022-10-31T01:43:58.308Z,112.5
2022-10-31T01:44:18.390Z,112.5
2022-10-31T01:44:38.432Z,112.5
2022-10-31T01:44:58.493Z,112.5
2022-10-31T01:45:18.559Z,112.5
2022-10-31T01:45:38.607Z,112.5
2022-10-31T01:45:58.670Z,112.5
2022-10-31T01:46:18.731Z,112.5
2022-10-31T01:46:38.792Z,112.5
2022-10-31T01:46:58.837Z,90
2022-10-31T01:47:18.912Z,90
2022-10-31T01:47:38.978Z,90
2022-10-31T01:47:59.455Z,67.5
2022-10-31T01:48:19.103Z,45
2022-10-31T01:48:39.170Z,45
2022-10-31T01:48:59.230Z,22.5
2022-10-31T01:49:19.286Z,45
2022-10-31T01:49:39.349Z,180
2022-10-31T01:49:59.384Z,247.5
2022-10-31T01:50:19.426Z,270
2022-10-31T01:50:39.518Z,225
2022-10-31T01:50:59.580Z,135
2022-10-31T01:51:19.630Z,157.5
2022-10-31T01:51:39.702Z,90
2022-10-31T01:51:59.760Z,45
2022-10-31T01:52:19.807Z,90
2022-10-31T01:52:39.889Z,90
2022-10-31T01:52:59.935Z,67.5
2022-10-31T01:53:24.382Z,67.5
2022-10-31T01:53:40.068Z,90
2022-10-31T01:54:00.124Z,67.5
2022-10-31T01:54:20.180Z,45
2022-10-31T01:54:40.256Z,22.5
2022-10-31T01:55:00.317Z,22.5
2022-10-31T01:55:20.379Z,22.5
2022-10-31T01:55:40.442Z,22.5
2022-10-31T01:56:00.497Z,22.5
2022-10-31T01:56:20.551Z,22.5
2022-10-31T01:56:40.606Z,22.5
2022-10-31T01:57:00.715Z,45
2022-10-31T01:57:20.736Z,45
2022-10-31T01:57:40.785Z,67.5
2022-10-31T01:58:01.381Z,67.5
2022-10-31T01:58:20.923Z,67.5
2022-10-31T01:58:40.982Z,67.5
2022-10-31T01:59:01.049Z,67.5
2022-10-31T01:59:21.103Z,67.5
2022-10-31T01:59:41.154Z,67.5
2022-10-31T02:00:01.187Z,90
2022-10-31T02:00:21.247Z,112.5
2022-10-31T02:00:41.332Z,112.5
2022-10-31T02:01:04.902Z,112.5
2022-10-31T02:01:21.666Z,112.5
2022-10-31T02:01:41.678Z,112.5
2022-10-31T02:02:01.780Z,112.5
2022-10-31T02:02:21.804Z,135
2022-10-31T02:02:41.939Z,135
2022-10-31T02:03:02.313Z,135
2022-10-31T02:03:21.838Z,135
2022-10-31T02:03:41.879Z,135
2022-10-31T02:04:01.944Z,135
2022-10-31T02:04:21.981Z,135
2022-10-31T02:04:42.067Z,135
2022-10-31T02:05:02.129Z,135
2022-10-31T02:05:22.189Z,112.5
2022-10-31T02:05:42.255Z,112.5
2022-10-31T02:06:02.315Z,112.5
2022-10-31T02:06:22.380Z,112.5
2022-10-31T02:06:42.425Z,112.5
2022-10-31T02:07:02.492Z,112.5
2022-10-31T02:07:22.540Z,112.5
2022-10-31T02:07:42.663Z,112.5
2022-10-31T02:08:02.695Z,112.5
2022-10-31T02:08:22.746Z,112.5
2022-10-31T02:08:42.898Z,112.5
2022-10-31T02:09:02.861Z,112.5
2022-10-31T02:09:22.946Z,112.5
2022-10-31T02:09:43.035Z,112.5
2022-10-31T02:10:03.075Z,112.5
2022-10-31T02:10:23.128Z,112.5
2022-10-31T02:10:43.187Z,112.5
2022-10-31T02:11:03.263Z,112.5
2022-10-31T02:11:23.308Z,112.5
2022-10-31T02:11:43.394Z,112.5
2022-10-31T02:12:03.447Z,112.5
2022-10-31T02:12:23.499Z,112.5
2022-10-31T02:12:43.559Z,112.5
2022-10-31T02:13:03.806Z,112.5
2022-10-31T02:13:23.680Z,112.5
2022-10-31T02:13:43.738Z,135
2022-10-31T02:14:03.778Z,135
2022-10-31T02:14:23.849Z,135
2022-10-31T02:14:43.910Z,135
2022-10-31T02:15:03.955Z,135
2022-10-31T02:15:24.051Z,112.5
2022-10-31T02:15:44.090Z,112.5
2022-10-31T02:16:04.141Z,112.5
2022-10-31T02:16:24.222Z,112.5
2022-10-31T02:16:44.269Z,112.5
2022-10-31T02:17:04.331Z,112.5
2022-10-31T02:17:24.383Z,112.5
2022-10-31T02:17:44.437Z,112.5
2022-10-31T02:18:04.485Z,90
2022-10-31T02:18:24.550Z,67.5
2022-10-31T02:18:44.604Z,67.5
2022-10-31T02:19:04.676Z,67.5
2022-10-31T02:19:24.719Z,67.5
2022-10-31T02:19:44.767Z,67.5
2022-10-31T02:20:04.831Z,67.5
2022-10-31T02:20:24.895Z,67.5
2022-10-31T02:20:44.956Z,67.5
2022-10-31T02:21:05.010Z,90
2022-10-31T02:21:25.084Z,112.5
2022-10-31T02:21:45.142Z,112.5
2022-10-31T02:22:05.205Z,112.5
2022-10-31T02:22:25.244Z,112.5
2022-10-31T02:22:45.333Z,112.5
2022-10-31T02:23:05.350Z,112.5
2022-10-31T02:23:25.427Z,112.5
2022-10-31T02:23:47.907Z,112.5
2022-10-31T02:24:05.545Z,112.5
2022-10-31T02:24:25.610Z,112.5
2022-10-31T02:24:45.665Z,112.5
2022-10-31T02:25:05.732Z,135
2022-10-31T02:25:25.792Z,135
2022-10-31T02:25:45.855Z,112.5
2022-10-31T02:26:05.905Z,112.5
2022-10-31T02:26:25.985Z,112.5
2022-10-31T02:26:46.027Z,112.5
2022-10-31T02:27:06.096Z,135
2022-10-31T02:27:26.161Z,135
2022-10-31T02:27:46.201Z,135
2022-10-31T02:28:06.377Z,135
2022-10-31T02:28:26.343Z,135
2022-10-31T02:28:46.391Z,135
2022-10-31T02:29:06.461Z,135
2022-10-31T02:29:26.511Z,135
2022-10-31T02:29:46.557Z,135
2022-10-31T02:30:06.630Z,135
2022-10-31T02:30:26.664Z,135
2022-10-31T02:30:46.731Z,135
2022-10-31T02:31:06.812Z,135
2022-10-31T02:31:26.884Z,135
2022-10-31T02:31:46.932Z,135
2022-10-31T02:32:06.993Z,135
2022-10-31T02:32:27.045Z,135
2022-10-31T02:32:47.113Z,135
2022-10-31T02:33:07.167Z,135
2022-10-31T02:33:27.237Z,135
2022-10-31T02:33:47.293Z,135
2022-10-31T02:34:07.354Z,135
2022-10-31T02:34:27.412Z,135
2022-10-31T02:34:47.473Z,135
2022-10-31T02:35:07.535Z,135
2022-10-31T02:35:27.586Z,135
2022-10-31T02:35:47.648Z,135
2022-10-31T02:36:07.708Z,135
2022-10-31T02:36:27.773Z,135
2022-10-31T02:36:47.825Z,135
2022-10-31T02:37:07.871Z,135
2022-10-31T02:37:27.952Z,135
2022-10-31T02:37:48.007Z,135
2022-10-31T02:38:08.048Z,135
2022-10-31T02:38:28.120Z,112.5
2022-10-31T02:38:48.190Z,112.5
2022-10-31T02:39:08.263Z,112.5
2022-10-31T02:39:28.337Z,112.5
2022-10-31T02:39:48.401Z,90
2022-10-31T02:40:08.454Z,90
2022-10-31T02:40:28.497Z,67.5
2022-10-31T02:40:48.584Z,90
2022-10-31T02:41:08.640Z,90
2022-10-31T02:41:28.708Z,90
2022-10-31T02:41:48.762Z,90
2022-10-31T02:42:08.811Z,67.5
2022-10-31T02:42:28.862Z,67.5
2022-10-31T02:42:48.953Z,67.5
2022-10-31T02:43:09.075Z,67.5
2022-10-31T02:43:29.066Z,67.5
2022-10-31T02:43:49.125Z,67.5
2022-10-31T02:44:09.183Z,67.5
2022-10-31T02:44:29.238Z,67.5
2022-10-31T02:44:49.302Z,67.5
2022-10-31T02:45:09.371Z,67.5
2022-10-31T02:45:29.417Z,67.5
2022-10-31T02:45:49.486Z,67.5
2022-10-31T02:46:09.536Z,67.5
2022-10-31T02:46:29.596Z,45
2022-10-31T02:46:49.659Z,45
2022-10-31T02:47:09.712Z,45
2022-10-31T02:47:29.766Z,67.5
2022-10-31T02:47:49.816Z,67.5
2022-10-31T02:48:09.883Z,67.5
2022-10-31T02:48:29.960Z,67.5
2022-10-31T02:48:50.024Z,67.5
2022-10-31T02:49:10.095Z,67.5
2022-10-31T02:49:30.148Z,67.5
2022-10-31T02:49:50.223Z,67.5
2022-10-31T02:50:10.275Z,67.5
2022-10-31T02:50:30.329Z,90
2022-10-31T02:50:50.385Z,67.5
2022-10-31T02:51:10.449Z,67.5
2022-10-31T02:51:30.515Z,67.5
2022-10-31T02:51:50.563Z,67.5
2022-10-31T02:52:10.632Z,67.5
2022-10-31T02:52:30.691Z,67.5
2022-10-31T02:52:50.752Z,67.5
2022-10-31T02:53:10.800Z,67.5
2022-10-31T02:53:30.871Z,67.5
2022-10-31T02:53:50.929Z,67.5
2022-10-31T02:54:10.984Z,67.5
2022-10-31T02:54:31.051Z,90
2022-10-31T02:54:51.106Z,135
2022-10-31T02:55:11.150Z,180
2022-10-31T02:55:31.220Z,202.5
2022-10-31T02:55:51.275Z,202.5
2022-10-31T02:56:11.327Z,180
2022-10-31T02:56:31.392Z,180
2022-10-31T02:56:51.446Z,180
2022-10-31T02:57:11.512Z,157.5
2022-10-31T02:57:31.567Z,112.5
2022-10-31T02:57:51.637Z,90
2022-10-31T02:58:11.759Z,90
2022-10-31T02:58:31.733Z,67.5
2022-10-31T02:58:51.795Z,67.5
2022-10-31T02:59:11.874Z,45
2022-10-31T02:59:31.931Z,45
2022-10-31T02:59:51.988Z,45
2022-10-31T03:00:12.058Z,45
2022-10-31T03:00:32.098Z,45
2022-10-31T03:00:52.360Z,45
2022-10-31T03:01:12.306Z,45
2022-10-31T03:01:32.461Z,45
2022-10-31T03:01:52.410Z,45
2022-10-31T03:02:12.558Z,45
2022-10-31T03:02:32.596Z,45
2022-10-31T03:02:52.509Z,45
2022-10-31T03:03:12.549Z,67.5
2022-10-31T03:03:32.627Z,67.5
2022-10-31T03:03:52.685Z,67.5
2022-10-31T03:04:12.729Z,67.5
2022-10-31T03:04:32.799Z,67.5
2022-10-31T03:04:52.850Z,90
2022-10-31T03:05:12.906Z,112.5
2022-10-31T03:05:32.981Z,112.5
2022-10-31T03:05:53.040Z,112.5
2022-10-31T03:06:13.093Z,112.5
2022-10-31T03:06:33.159Z,112.5
2022-10-31T03:06:53.213Z,112.5
2022-10-31T03:07:13.289Z,112.5
2022-10-31T03:07:33.327Z,112.5
2022-10-31T03:07:53.407Z,90
2022-10-31T03:08:13.479Z,67.5
2022-10-31T03:08:33.544Z,45
2022-10-31T03:08:53.614Z,45
2022-10-31T03:09:13.673Z,112.5
2022-10-31T03:09:33.718Z,135
2022-10-31T03:09:53.748Z,180
2022-10-31T03:10:13.809Z,292.5
2022-10-31T03:10:33.852Z,315
2022-10-31T03:10:53.932Z,157.5
2022-10-31T03:11:14.003Z,67.5
2022-10-31T03:11:34.086Z,22.5
2022-10-31T03:11:54.137Z,22.5
2022-10-31T03:12:14.186Z,22.5
2022-10-31T03:12:34.264Z,22.5
2022-10-31T03:12:54.309Z,22.5
2022-10-31T03:13:14.469Z,22.5
2022-10-31T03:13:34.440Z,22.5
2022-10-31T03:13:54.507Z,22.5
2022-10-31T03:14:14.575Z,22.5
2022-10-31T03:14:34.644Z,45
2022-10-31T03:14:54.682Z,67.5
2022-10-31T03:15:14.772Z,67.5
2022-10-31T03:15:34.806Z,90
2022-10-31T03:15:54.881Z,67.5
2022-10-31T03:16:14.925Z,67.5
2022-10-31T03:16:34.971Z,67.5
2022-10-31T03:16:55.032Z,67.5
2022-10-31T03:17:15.098Z,67.5
2022-10-31T03:17:35.152Z,67.5
2022-10-31T03:17:55.221Z,67.5
2022-10-31T03:18:15.289Z,67.5
2022-10-31T03:18:35.352Z,45
2022-10-31T03:18:55.414Z,22.5
2022-10-31T03:19:15.488Z,22.5
2022-10-31T03:19:35.543Z,22.5
2022-10-31T03:19:55.602Z,22.5
2022-10-31T03:20:15.656Z,22.5
2022-10-31T03:20:35.735Z,22.5
2022-10-31T03:20:55.789Z,22.5
2022-10-31T03:21:15.859Z,22.5
2022-10-31T03:21:35.913Z,22.5
2022-10-31T03:21:55.992Z,22.5
2022-10-31T03:22:16.059Z,22.5
2022-10-31T03:22:36.121Z,22.5
2022-10-31T03:22:56.185Z,22.5
2022-10-31T03:23:16.242Z,22.5
2022-10-31T03:23:36.302Z,22.5
2022-10-31T03:23:56.366Z,22.5
2022-10-31T03:24:16.413Z,22.5
2022-10-31T03:24:36.483Z,22.5
2022-10-31T03:24:56.518Z,22.5
2022-10-31T03:25:16.580Z,22.5
2022-10-31T03:25:36.637Z,22.5
2022-10-31T03:25:56.682Z,22.5
2022-10-31T03:26:16.742Z,22.5
2022-10-31T03:26:36.817Z,22.5
2022-10-31T03:26:56.883Z,45
2022-10-31T03:27:16.954Z,45
2022-10-31T03:27:37.012Z,45
2022-10-31T03:27:57.396Z,45
2022-10-31T03:28:17.123Z,45
2022-10-31T03:28:37.188Z,45
2022-10-31T03:28:57.238Z,45
2022-10-31T03:29:17.309Z,45
2022-10-31T03:29:37.372Z,45
2022-10-31T03:29:57.434Z,45
2022-10-31T03:30:17.501Z,45
2022-10-31T03:30:37.551Z,45
2022-10-31T03:30:57.623Z,45
2022-10-31T03:31:17.681Z,45
2022-10-31T03:31:37.732Z,45
2022-10-31T03:31:57.786Z,45
2022-10-31T03:32:17.847Z,45
2022-10-31T03:32:37.919Z,45
2022-10-31T03:32:58.376Z,45
2022-10-31T03:33:18.020Z,45
2022-10-31T03:33:38.074Z,45
2022-10-31T03:33:58.146Z,45
2022-10-31T03:34:18.194Z,45
2022-10-31T03:34:38.262Z,45
2022-10-31T03:34:58.325Z,22.5
2022-10-31T03:35:18.395Z,22.5
2022-10-31T03:35:38.438Z,22.5
2022-10-31T03:35:58.479Z,22.5
2022-10-31T03:36:18.560Z,22.5
2022-10-31T03:36:38.607Z,22.5
2022-10-31T03:36:58.685Z,22.5
2022-10-31T03:37:18.744Z,22.5
2022-10-31T03:37:38.807Z,22.5
2022-10-31T03:37:58.845Z,22.5
2022-10-31T03:38:18.907Z,67.5
2022-10-31T03:38:38.972Z,90
2022-10-31T03:38:59.062Z,45
2022-10-31T03:39:19.095Z,22.5
2022-10-31T03:39:39.159Z,22.5
2022-10-31T03:39:59.214Z,0
2022-10-31T03:40:19.255Z,0
2022-10-31T03:40:39.342Z,0
2022-10-31T03:40:59.415Z,0
2022-10-31T03:41:19.462Z,0
2022-10-31T03:41:39.514Z,0
2022-10-31T03:41:59.581Z,22.5
2022-10-31T03:42:19.661Z,22.5
2022-10-31T03:42:39.715Z,22.5
2022-10-31T03:43:00.145Z,22.5
2022-10-31T03:43:19.935Z,22.5
2022-10-31T03:43:39.844Z,22.5
2022-10-31T03:43:59.953Z,22.5
2022-10-31T03:44:19.988Z,22.5
2022-10-31T03:44:40.064Z,22.5
2022-10-31T03:45:00.185Z,22.5
2022-10-31T03:45:20.203Z,22.5
2022-10-31T03:45:40.265Z,22.5
2022-10-31T03:46:00.355Z,22.5
2022-10-31T03:46:20.401Z,22.5
2022-10-31T03:46:40.464Z,22.5
2022-10-31T03:47:00.533Z,22.5
2022-10-31T03:47:20.579Z,22.5
2022-10-31T03:47:40.635Z,22.5
2022-10-31T03:48:01.051Z,45
2022-10-31T03:48:20.759Z,45
2022-10-31T03:48:40.835Z,22.5
2022-10-31T03:49:00.902Z,22.5
2022-10-31T03:49:20.949Z,22.5
2022-10-31T03:49:41.020Z,22.5
2022-10-31T03:50:01.081Z,22.5
2022-10-31T03:50:21.119Z,22.5
2022-10-31T03:50:41.187Z,22.5
2022-10-31T03:51:01.239Z,22.5
2022-10-31T03:51:21.303Z,22.5
2022-10-31T03:51:41.363Z,22.5
2022-10-31T03:52:01.419Z,22.5
2022-10-31T03:52:21.480Z,22.5
2022-10-31T03:52:41.555Z,22.5
2022-10-31T03:53:01.579Z,22.5
2022-10-31T03:53:21.630Z,22.5
2022-10-31T03:53:41.717Z,22.5
2022-10-31T03:54:01.795Z,22.5
2022-10-31T03:54:21.846Z,22.5
2022-10-31T03:54:41.911Z,22.5
2022-10-31T03:55:01.968Z,22.5
2022-10-31T03:55:22.040Z,22.5
2022-10-31T03:55:42.093Z,22.5
2022-10-31T03:56:02.154Z,22.5
2022-10-31T03:56:22.206Z,22.5
2022-10-31T03:56:42.281Z,22.5
2022-10-31T03:57:02.334Z,22.5
2022-10-31T03:57:22.392Z,22.5
2022-10-31T03:57:42.465Z,22.5
2022-10-31T03:58:03.085Z,22.5
2022-10-31T03:58:22.586Z,22.5
2022-10-31T03:58:42.631Z,22.5
2022-10-31T03:59:02.686Z,22.5
2022-10-31T03:59:22.711Z,22.5
2022-10-31T03:59:42.775Z,22.5
2022-10-31T04:00:02.862Z,22.5
2022-10-31T04:00:22.915Z,22.5
2022-10-31T04:00:43.008Z,22.5
2022-10-31T04:01:03.229Z,45
2022-10-31T04:01:23.273Z,67.5
2022-10-31T04:01:43.295Z,67.5
2022-10-31T04:02:03.418Z,67.5
2022-10-31T04:02:23.462Z,67.5
2022-10-31T04:02:43.568Z,67.5
2022-10-31T04:03:03.670Z,67.5
2022-10-31T04:03:23.483Z,67.5
2022-10-31T04:03:43.536Z,67.5
2022-10-31T04:04:03.614Z,67.5
2022-10-31T04:04:23.671Z,67.5
2022-10-31T04:04:43.729Z,67.5
2022-10-31T04:05:03.814Z,45
2022-10-31T04:05:23.861Z,45
2022-10-31T04:05:43.927Z,45
2022-10-31T04:06:04.004Z,45
2022-10-31T04:06:24.043Z,45
2022-10-31T04:06:44.100Z,67.5
2022-10-31T04:07:04.179Z,67.5
2022-10-31T04:07:24.229Z,90
2022-10-31T04:07:44.290Z,135
2022-10-31T04:08:04.353Z,157.5
2022-10-31T04:08:24.420Z,157.5
2022-10-31T04:08:44.488Z,157.5
2022-10-31T04:09:04.506Z,157.5
2022-10-31T04:09:24.596Z,157.5
2022-10-31T04:09:44.661Z,157.5
2022-10-31T04:10:04.714Z,157.5
2022-10-31T04:10:30.087Z,157.5
2022-10-31T04:10:44.833Z,157.5
2022-10-31T04:11:04.889Z,157.5
2022-10-31T04:11:24.972Z,157.5
2022-10-31T04:11:45.006Z,157.5
2022-10-31T04:12:05.077Z,157.5
2022-10-31T04:12:25.125Z,157.5
2022-10-31T04:12:45.181Z,157.5
2022-10-31T04:13:05.267Z,157.5
2022-10-31T04:13:25.310Z,157.5
2022-10-31T04:13:45.357Z,157.5
2022-10-31T04:14:05.436Z,157.5
2022-10-31T04:14:25.469Z,90
2022-10-31T04:14:45.556Z,45
2022-10-31T04:15:05.627Z,67.5
2022-10-31T04:15:25.679Z,90
2022-10-31T04:15:45.735Z,45
2022-10-31T04:16:05.797Z,22.5
2022-10-31T04:16:25.833Z,22.5
2022-10-31T04:16:45.925Z,22.5
2022-10-31T04:17:05.976Z,22.5
2022-10-31T04:17:26.039Z,22.5
2022-10-31T04:17:46.108Z,22.5
2022-10-31T04:18:06.165Z,22.5
2022-10-31T04:18:26.209Z,22.5
2022-10-31T04:18:46.272Z,22.5
2022-10-31T04:19:06.328Z,22.5
2022-10-31T04:19:26.404Z,22.5
2022-10-31T04:19:46.479Z,45
2022-10-31T04:20:06.532Z,90
2022-10-31T04:20:26.597Z,90
2022-10-31T04:20:46.655Z,112.5
2022-10-31T04:21:06.705Z,112.5
2022-10-31T04:21:26.780Z,112.5
2022-10-31T04:21:46.840Z,112.5
2022-10-31T04:22:06.908Z,112.5
2022-10-31T04:22:26.950Z,112.5
2022-10-31T04:22:47.004Z,112.5
2022-10-31T04:23:08.929Z,112.5
2022-10-31T04:23:27.101Z,112.5
2022-10-31T04:23:47.203Z,112.5
2022-10-31T04:24:07.238Z,112.5
2022-10-31T04:24:27.304Z,112.5
2022-10-31T04:24:47.368Z,112.5
2022-10-31T04:25:07.413Z,112.5
2022-10-31T04:25:27.479Z,112.5
2022-10-31T04:25:47.521Z,135
2022-10-31T04:26:07.590Z,157.5
2022-10-31T04:26:27.644Z,157.5
2022-10-31T04:26:47.707Z,157.5
2022-10-31T04:27:07.776Z,157.5
2022-10-31T04:27:27.840Z,157.5
2022-10-31T04:27:47.898Z,157.5
2022-10-31T04:28:08.013Z,135
2022-10-31T04:28:28.021Z,157.5
2022-10-31T04:28:48.084Z,157.5
2022-10-31T04:29:08.124Z,157.5
2022-10-31T04:29:28.171Z,180
2022-10-31T04:29:50.772Z,180
2022-10-31T04:30:08.322Z,180
2022-10-31T04:30:28.384Z,180
2022-10-31T04:30:48.446Z,157.5
2022-10-31T04:31:08.498Z,135